KSME

Details ICAO KSME (SME)
Name SOMERSET PULASKI CO J T WILSON FLD
Region United States
Timezone America/New_York (UTC-4.0)
Plans Departing 6
Arriving 9
Stats Elevation 927 ft / 283 m (AMSL)
Location 37.054808° -84.614250°
Runways 1
Magnetic Variation 5.488° W
Sunrise 2018-05-24 10:25:25 UTC / 2018-05-24 06:25:25 Local
Sunset 2018-05-25 00:48:05 UTC / 2018-05-24 20:48:05 Local
Advertisement - Login to hide

Runways

ID Width Length Bearing (true) Bearing (mag) Surface Threshold Offset Overrun Length
05 100 ft / 30 m 5,802 ft / 1,768 m 42.88° 48.37° Asphalt 0 ft / 0 m 0 ft / 0 m
23 100 ft / 30 m 5,802 ft / 1,768 m 222.89° 228.38° Asphalt 300 ft / 91 m 0 ft / 0 m

Map

Weather


0- 5 10 15 20 25 30 35+ Temperature / ° C

Clouds and Precipitation
Forecast for 2018-05-24 18:00 UTC. Updated 3 hours ago

Ground ~20,000 ft ~40,000 ft Winds

METAR

KSME 241955Z AUTO 10SM SCT048 SCT055 SCT065 27/16 A3010 RMK AO2

TAF

TAF KSME 241725Z 2418/2518 VRB05KT P6SM FEW050 FEW250 FM250100 VRB03KT P6SM FEW250

Frequencies

Recorded 124.85 MHz AWOS 3
Unicom 122.80 MHz CTAF/UNICOM
Warning: Do not use this data for real-world aviation or navigation. No guarantee of current accuracy is given.